Latest Weather Observations for Curtin

IDW60801

Issued at 3:32 pm WST Sunday 19 April 2015 (issued every 30 minutes, with the page automatically refreshed every 10 minutes)

About weather observations | Map of weather stations | Latest weather observations for WA | Other Formats
Station Details ID: 003080 Name: CURTIN AERO Lat: -17.58 Lon: 123.83 Height: 77.5 m
Data from the previous 72 hours. | See also: Recent months at Curtin
Date/Time
WST
Temp
°C
App
Temp
°C
Dew
Point
Rel
Hum
%
Delta-T
°C
Wind Press
QNH
hPa
Press
MSL
hPa
Rain
since 9 am
mm
Dir
 
Spd
km/h
Gust
km/h
Spd
kts
Gust
kts
19/03:30pm 29.5 30.6 21.2 61 5.6 E 17 24 9 13 1010.6 1010.1 0.0
19/03:00pm 31.5 32.6 20.4 51 7.4 ESE 15 22 8 12 1010.4 1009.9 0.0
19/02:30pm 31.4 32.8 20.4 52 7.3 ESE 13 17 7 9 1010.3 1009.8 0.0
19/02:00pm 31.4 32.1 20.4 52 7.3 SE 17 24 9 13 1010.8 1010.3 0.0
19/01:30pm 31.4 33.7 20.7 53 7.2 ESE 9 15 5 8 1011.1 1010.6 0.0
19/01:00pm 31.3 32.6 20.9 54 7.0 ESE 15 22 8 12 1011.4 1010.9 0.0
19/12:30pm 30.9 32.9 20.8 55 6.8 E 11 17 6 9 1011.8 1011.3 0.0
19/12:00pm 32.2 32.5 20.8 51 7.6 E 20 37 11 20 1011.9 1011.4 0.0
19/11:30am 30.7 31.0 20.3 53 6.9 E 19 28 10 15 1012.3 1011.8 0.0
19/11:00am 30.5 30.9 20.7 55 6.5 E 19 32 10 17 1012.6 1012.1 0.0
19/10:30am 30.0 30.5 20.8 57 6.1 E 19 26 10 14 1013.2 1012.7 0.0
19/10:00am 29.9 30.6 20.5 57 6.2 E 17 28 9 15 1013.3 1012.8 0.0
19/09:30am 30.0 30.6 21.1 59 6.0 ESE 19 30 10 16 1013.4 1012.9 0.0
19/09:00am 29.2 29.7 21.2 62 5.4 ESE 20 30 11 16 1013.6 1013.1 0.0
19/08:30am 29.2 30.0 21.7 64 5.1 E 20 28 11 15 1013.4 1012.9 0.0
19/08:00am 28.2 29.3 21.2 65 4.7 ESE 17 24 9 13 1013.3 1012.8 0.0
19/07:30am 27.2 28.6 21.0 69 4.1 ESE 15 22 8 12 1013.1 1012.6 0.0
19/07:00am 26.8 28.2 21.1 71 3.8 ESE 15 20 8 11 1012.7 1012.2 0.0
19/06:30am 26.4 28.0 20.7 71 3.8 E 13 20 7 11 1012.3 1011.8 0.0
19/06:00am 26.2 27.6 21.0 73 3.4 ESE 15 20 8 11 1011.6 1011.1 0.0
19/05:30am 26.1 27.5 21.1 74 3.3 ESE 15 24 8 13 1011.1 1010.6 0.0
19/05:00am 26.4 27.9 21.2 73 3.5 ESE 15 22 8 12 1011.2 1010.7 0.0
19/04:30am 26.5 28.0 21.3 73 3.5 ESE 15 20 8 11 1010.9 1010.4 0.0
19/04:00am 26.6 28.5 21.4 73 3.5 ESE 13 20 7 11 1010.9 1010.4 0.0
19/03:30am 26.8 29.0 21.8 74 3.4 ESE 13 17 7 9 1010.9 1010.4 0.0
19/03:00am 26.4 29.0 22.0 77 3.0 ESE 11 17 6 9 1010.8 1010.3 0.0
19/02:30am 26.3 29.0 22.2 78 2.8 E 11 15 6 8 1010.9 1010.4 0.0
19/02:00am 26.7 29.3 21.9 75 3.2 E 11 17 6 9 1011.1 1010.6 0.0
19/01:30am 27.2 29.0 21.9 73 3.6 ENE 15 22 8 12 1011.2 1010.7 0.0
19/01:00am 27.3 30.5 22.3 74 3.4 ESE 9 13 5 7 1011.4 1010.9 0.0
19/12:30am 27.5 30.9 22.7 75 3.3 E 9 11 5 6 1011.6 1011.1 0.0
19/12:00am 28.1 32.1 22.8 73 3.6 E 6 9 3 5 1011.8 1011.3 0.0
 
Date/Time
WST
Temp
°C
App
Temp
°C
Dew
Point
Rel
Hum
%
Delta-T
°C
Wind Press
QNH
hPa
Press
MSL
hPa
Rain
since 9 am
mm
Dir
 
Spd
km/h
Gust
km/h
Spd
kts
Gust
kts
18/11:30pm 29.0 32.8 22.7 69 4.3 SSE 7 11 4 6 1011.8 1011.3 0.0
18/11:00pm 28.8 32.7 23.0 71 4.0 SE 7 9 4 5 1011.8 1011.3 0.0
18/10:30pm 28.5 34.4 24.1 77 3.1 CALM 0 0 0 0 1011.9 1011.4 0.0
18/10:00pm 28.6 34.4 23.9 75 3.3 CALM 0 0 0 0 1011.8 1011.3 0.0
18/09:30pm 28.9 32.6 23.3 72 3.8 NE 9 13 5 7 1011.8 1011.3 0.0
18/09:00pm 28.8 32.8 23.7 74 3.5 ENE 9 13 5 7 1011.7 1011.2 0.0
18/08:30pm 29.4 33.6 23.1 69 4.3 NNW 6 9 3 5 1011.5 1011.0 0.0
18/08:00pm 29.4 34.6 22.9 68 4.5 CALM 0 0 0 0 1011.3 1010.8 0.0
18/07:30pm 29.6 34.9 23.1 68 4.5 CALM 0 0 0 0 1011.0 1010.5 0.0
18/07:00pm 30.0 34.3 22.7 65 5.0 WNW 4 6 2 3 1010.7 1010.2 0.0
18/06:30pm 30.2 34.6 23.4 67 4.7 NE 6 7 3 4 1010.3 1009.8 0.0
18/06:00pm 30.4 34.4 22.0 60 5.7 NE 4 9 2 5 1009.9 1009.4 0.0
18/05:30pm 31.0 34.0 20.9 55 6.8 N 6 7 3 4 1009.6 1009.1 0.0
18/05:00pm 32.0 34.9 20.6 51 7.6 SSE 6 7 3 4 1009.3 1008.8 0.0
18/04:30pm 32.0 31.9 19.6 47 8.2 S 19 26 10 14 1009.1 1008.6 0.0
18/04:00pm 34.2 36.9 20.6 45 9.2 NNE 7 9 4 5 1008.8 1008.3 0.0
18/03:30pm 34.3 36.3 19.9 42 9.6 ENE 9 11 5 6 1008.7 1008.2 0.0
18/03:00pm 34.7 36.7 19.9 42 9.9 SE 9 15 5 8 1008.7 1008.2 0.0
18/02:30pm 34.7 36.3 19.9 42 9.9 E 11 19 6 10 1009.0 1008.5 0.0
18/02:00pm 34.8 36.2 19.6 40 10.1 ESE 11 19 6 10 1009.2 1008.7 0.0
18/01:30pm 35.0 37.6 20.5 42 9.8 NE 7 13 4 7 1009.5 1009.0 0.0
18/01:00pm 33.7 35.0 19.4 43 9.5 ESE 11 19 6 10 1010.0 1009.5 0.0
18/12:30pm 33.6 35.0 20.4 46 8.8 SE 13 20 7 11 1010.4 1009.9 0.0
18/12:00pm 33.9 36.0 21.0 47 8.7 E 11 20 6 11 1010.7 1010.2 0.0
18/11:30am 33.0 34.5 20.5 47 8.4 ESE 13 22 7 12 1011.0 1010.5 0.0
18/11:00am 32.5 33.4 20.1 48 8.3 SE 15 22 8 12 1011.5 1011.0 0.0
18/10:30am 31.8 33.5 21.0 52 7.3 ESE 13 20 7 11 1011.9 1011.4 0.0
18/10:00am 31.2 32.8 20.8 54 7.0 SE 13 22 7 12 1012.4 1011.9 0.0
18/09:30am 30.2 32.3 21.0 58 6.2 ESE 11 17 6 9 1012.7 1012.2 0.0
18/09:00am 30.2 33.3 22.1 62 5.5 ENE 9 13 5 7 1012.7 1012.2 5.2
18/08:30am 29.0 33.1 23.2 71 4.0 NNE 7 15 4 8 1012.9 1012.4 5.2
18/08:00am 27.8 32.0 23.4 77 3.0 E 7 9 4 5 1012.7 1012.2 5.2
18/07:30am 26.4 30.9 23.7 85 1.9 E 6 9 3 5 1012.6 1012.1 5.2
18/07:00am 25.0 29.4 23.4 91 1.1 ENE 6 7 3 4 1012.4 1011.9 5.2
18/06:30am 23.9 28.3 23.4 97 0.3 E 6 9 3 5 1012.0 1011.5 5.2
18/06:00am 23.0 26.7 22.5 97 0.3 E 7 9 4 5 1011.6 1011.1 5.2
18/05:30am 23.1 26.8 22.6 97 0.3 E 7 9 4 5 1011.3 1010.8 5.2
18/05:00am 23.2 27.3 23.0 99 0.1 ENE 6 7 3 4 1011.2 1010.7 5.2
18/04:30am 23.0 26.4 22.7 98 0.2 ENE 9 11 5 6 1010.9 1010.4 5.2
18/04:00am 23.4 28.6 22.9 97 0.3 CALM 0 0 0 0 1010.9 1010.4 5.2
18/03:30am 23.6 27.7 22.9 96 0.5 SSE 6 6 3 3 1010.9 1010.4 5.2
18/03:00am 23.8 29.2 23.3 97 0.3 CALM 0 0 0 0 1010.9 1010.4 5.2
18/02:30am 23.8 28.4 23.1 96 0.5 ENE 4 7 2 4 1011.0 1010.5 5.2
18/02:00am 24.0 28.2 23.1 95 0.6 ENE 6 7 3 4 1011.3 1010.8 5.2
18/01:30am 24.3 28.3 23.1 93 0.8 SE 7 11 4 6 1011.6 1011.1 5.2
18/01:00am 24.4 28.5 23.2 93 0.8 ENE 7 9 4 5 1011.9 1011.4 5.2
18/12:30am 24.3 28.0 23.3 94 0.7 ENE 9 13 5 7 1011.9 1011.4 5.2
18/12:00am 24.2 28.4 23.5 96 0.5 ENE 7 11 4 6 1012.1 1011.6 5.2
 
Date/Time
WST
Temp
°C
App
Temp
°C
Dew
Point
Rel
Hum
%
Delta-T
°C
Wind Press
QNH
hPa
Press
MSL
hPa
Rain
since 9 am
mm
Dir
 
Spd
km/h
Gust
km/h
Spd
kts
Gust
kts
17/11:30pm 24.1 28.2 23.2 95 0.6 ENE 7 9 4 5 1012.3 1011.8 5.2
17/11:00pm 24.1 28.2 23.2 95 0.6 ENE 7 9 4 5 1012.3 1011.8 5.2
17/10:30pm 24.5 28.6 23.3 93 0.8 NNE 7 9 4 5 1012.6 1012.1 5.2
17/10:00pm 24.7 28.9 23.5 93 0.8 NNE 7 11 4 6 1012.3 1011.8 5.2
17/09:30pm 25.1 28.7 23.0 88 1.4 NE 9 13 5 7 1012.3 1011.8 5.2
17/09:00pm 25.4 29.3 23.6 90 1.2 NE 9 15 5 8 1012.4 1011.9 5.2
17/08:30pm 25.2 28.1 23.1 88 1.4 N 13 20 7 11 1011.9 1011.4 5.2
17/08:00pm 24.9 27.4 23.1 90 1.2 NNE 15 19 8 10 1011.5 1011.0 5.2
17/07:39pm 26.6 26.9 21.6 74 3.3 ENE 22 43 12 23 1011.3 1010.8 1.8
17/07:30pm 29.7 30.8 19.7 55 6.6 ENE 13 22 7 12 1011.1 1010.6 0.0
17/07:00pm 29.6 31.3 19.3 54 6.7 WNW 9 11 5 6 1009.9 1009.4 0.0
17/06:30pm 29.7 31.9 19.1 53 6.9 NNE 6 9 3 5 1009.3 1008.8 0.0
17/06:00pm 30.2 32.1 18.9 50 7.4 NNW 7 13 4 7 1009.0 1008.5 0.0
17/05:30pm 31.2 32.8 19.9 51 7.5 N 11 17 6 9 1008.8 1008.3 0.0
17/05:00pm 32.6 33.4 19.8 46 8.5 NNE 15 26 8 14 1008.4 1007.9 0.0
17/04:30pm 35.7 35.8 17.4 33 11.8 SE 13 20 7 11 1007.7 1007.2 0.0
17/04:00pm 36.5 36.1 17.1 31 12.6 SSE 15 24 8 13 1007.5 1007.0 0.0
17/03:30pm 37.0 37.4 18.1 33 12.4 ESE 13 24 7 13 1007.6 1007.1 0.0
17/03:00pm 36.6 35.8 17.2 31 12.6 ESE 17 26 9 14 1008.0 1007.5 0.0
17/02:30pm 35.9 36.1 17.6 34 11.9 ESE 13 17 7 9 1008.1 1007.6 0.0
17/02:00pm 35.9 35.3 17.6 34 11.9 SE 17 24 9 13 1008.3 1007.8 0.0
17/01:30pm 36.5 35.5 17.6 32 12.3 SSE 19 28 10 15 1008.6 1008.1 0.0
17/01:00pm 35.9 35.5 17.1 32 12.1 SSE 15 26 8 14 1009.0 1008.5 0.0
17/12:30pm 36.0 34.9 17.7 34 11.9 SSE 20 26 11 14 1009.6 1009.1 0.0
17/12:00pm 35.2 35.1 17.0 34 11.7 SSE 13 24 7 13 1010.0 1009.5 0.0
17/11:30am 34.3 34.6 17.1 36 11.0 SE 11 20 6 11 1010.5 1010.0 0.0
17/11:00am 34.3 34.1 17.5 36 10.8 E 15 22 8 12 1011.0 1010.5 0.0
17/10:30am 33.7 33.6 17.8 38 10.3 ESE 15 24 8 13 1011.5 1011.0 0.0
17/10:00am 33.2 32.9 17.4 39 10.1 ESE 15 20 8 11 1011.9 1011.4 0.0
17/09:30am 32.1 30.6 16.4 39 9.9 ESE 19 26 10 14 1012.3 1011.8 0.0
17/09:00am 31.5 30.0 16.3 40 9.6 ESE 19 28 10 15 1012.4 1011.9 0.0
17/08:30am 30.4 28.0 15.3 40 9.3 ESE 22 32 12 17 1012.4 1011.9 0.0
17/08:00am 30.0 28.8 16.1 43 8.7 SE 17 22 9 12 1012.7 1012.2 0.0
17/07:30am 28.6 27.6 15.5 45 8.1 SE 15 24 8 13 1012.6 1012.1 0.0
17/07:00am 27.1 26.1 15.5 49 7.1 SE 15 19 8 10 1012.3 1011.8 0.0
17/06:30am 26.3 25.1 15.0 49 6.8 SE 15 22 8 12 1011.9 1011.4 0.0
17/06:00am 25.0 24.3 15.3 55 5.9 SSE 13 17 7 9 1011.7 1011.2 0.0
17/05:30am 24.9 24.2 15.5 56 5.7 SSE 13 17 7 9 1011.8 1011.3 0.0
17/05:00am 24.5 24.8 16.0 59 5.2 SSE 9 11 5 6 1011.8 1011.3 0.0
17/04:30am 25.0 25.7 16.2 58 5.4 SSE 7 9 4 5 1011.5 1011.0 0.0
17/04:00am 25.4 26.2 16.3 57 5.6 SSE 7 11 4 6 1011.2 1010.7 0.0
17/03:30am 25.4 26.1 17.1 60 5.2 SSE 9 11 5 6 1011.1 1010.6 0.0
17/03:00am 24.0 25.6 18.2 70 3.7 S 7 9 4 5 1011.1 1010.6 0.0
17/02:30am 23.1 25.1 18.8 77 2.7 NE 6 7 3 4 1011.3 1010.8 0.0
17/02:00am 23.5 26.4 18.2 72 3.3 CALM 0 0 0 0 1011.4 1010.9 0.0
17/01:30am 24.4 25.6 18.3 69 3.9 NNE 9 11 5 6 1011.6 1011.1 0.0
17/01:00am 24.7 27.6 18.2 67 4.1 CALM 0 4 0 2 1011.8 1011.3 0.0
17/12:30am 26.2 27.3 18.1 61 5.1 SW 9 11 5 6 1012.1 1011.6 0.0
17/12:00am 25.2 27.1 18.9 68 4.0 SW 7 9 4 5 1012.2 1011.7 0.0
 
Date/Time
WST
Temp
°C
App
Temp
°C
Dew
Point
Rel
Hum
%
Delta-T
°C
Wind Press
QNH
hPa
Press
MSL
hPa
Rain
since 9 am
mm
Dir
 
Spd
km/h
Gust
km/h
Spd
kts
Gust
kts
16/11:30pm 25.2 27.9 18.6 67 4.2 SW 2 9 1 5 1012.4 1011.9 0.0
16/11:00pm 25.7 28.1 17.9 62 4.9 SSW 2 6 1 3 1012.5 1012.0 0.0
16/10:30pm 27.6 29.0 18.6 58 5.8 WSW 9 11 5 6 1012.8 1012.3 0.0
16/10:00pm 27.8 28.9 17.9 54 6.3 W 9 15 5 8 1012.9 1012.4 0.0
16/09:30pm 28.7 29.9 18.2 53 6.7 SSW 9 9 5 5 1012.6 1012.1 0.0
16/09:00pm 29.4 30.2 18.2 51 7.2 SSW 11 13 6 7 1012.6 1012.1 0.0
16/08:30pm 29.7 30.1 18.2 50 7.4 SSW 13 15 7 8 1012.5 1012.0 0.0
16/08:00pm 29.5 30.8 19.2 54 6.7 SSW 11 13 6 7 1012.4 1011.9 0.0
16/07:30pm 28.3 30.4 19.0 57 6.0 S 6 7 3 4 1012.0 1011.5 0.0
16/07:00pm 29.0 30.7 18.1 51 7.0 S 6 7 3 4 1011.5 1011.0 0.0
16/06:30pm 30.3 31.8 18.1 48 7.8 S 7 7 4 4 1011.1 1010.6 0.0
16/06:00pm 32.8 33.6 17.4 39 9.9 S 9 9 5 5 1011.0 1010.5 0.0
16/05:30pm 34.6 34.6 17.3 35 11.1 S 13 17 7 9 1010.8 1010.3 0.0
16/05:00pm 36.2 36.1 16.9 32 12.4 S 13 15 7 8 1010.5 1010.0 0.0
16/04:30pm 36.9 35.9 16.5 30 13.1 S 17 20 9 11 1010.4 1009.9 0.0
16/04:00pm 37.4 36.9 16.9 30 13.3 S 15 20 8 11 1010.4 1009.9 0.0

Other Formats:

Comma delimited format used in spreadsheet applications
http://www.bom.gov.au/fwo/IDW60801/IDW60801.94204.axf

JavaScript Object Notation format (JSON) in row-major order
http://www.bom.gov.au/fwo/IDW60801/IDW60801.94204.json